sensor_id;sensor_type;location;lat;lon;timestamp;temperature;humidity
72114;SHT31;59989;46.220;19.888;2023-11-21T00:00:32;4.14;97.65
72114;SHT31;59989;46.220;19.888;2023-11-21T00:03:34;4.12;97.61
72114;SHT31;59989;46.220;19.888;2023-11-21T00:06:37;4.08;97.75
72114;SHT31;59989;46.220;19.888;2023-11-21T00:09:41;4.17;97.89
72114;SHT31;59989;46.220;19.888;2023-11-21T00:12:43;4.12;97.75
72114;SHT31;59989;46.220;19.888;2023-11-21T00:15:46;4.15;97.75
72114;SHT31;59989;46.220;19.888;2023-11-21T00:18:48;4.11;97.78
72114;SHT31;59989;46.220;19.888;2023-11-21T00:21:51;4.12;97.82
72114;SHT31;59989;46.220;19.888;2023-11-21T00:24:53;4.08;97.94
72114;SHT31;59989;46.220;19.888;2023-11-21T00:27:56;4.14;97.88
72114;SHT31;59989;46.220;19.888;2023-11-21T00:30:58;4.25;97.74
72114;SHT31;59989;46.220;19.888;2023-11-21T00:34:02;4.29;97.89
72114;SHT31;59989;46.220;19.888;2023-11-21T00:37:09;4.41;97.86
72114;SHT31;59989;46.220;19.888;2023-11-21T00:40:12;4.53;98.07
72114;SHT31;59989;46.220;19.888;2023-11-21T00:43:15;4.63;98.11
72114;SHT31;59989;46.220;19.888;2023-11-21T00:46:17;4.76;98.13
72114;SHT31;59989;46.220;19.888;2023-11-21T00:49:20;4.83;98.19
72114;SHT31;59989;46.220;19.888;2023-11-21T00:52:24;4.91;97.89
72114;SHT31;59989;46.220;19.888;2023-11-21T00:55:27;5.01;97.79
72114;SHT31;59989;46.220;19.888;2023-11-21T00:58:30;5.04;97.68
72114;SHT31;59989;46.220;19.888;2023-11-21T01:01:33;5.08;97.63
72114;SHT31;59989;46.220;19.888;2023-11-21T01:04:36;5.07;97.54
72114;SHT31;59989;46.220;19.888;2023-11-21T01:07:38;5.00;97.36
72114;SHT31;59989;46.220;19.888;2023-11-21T01:10:41;5.03;97.58
72114;SHT31;59989;46.220;19.888;2023-11-21T01:13:43;5.05;97.45
72114;SHT31;59989;46.220;19.888;2023-11-21T01:16:47;5.08;97.34
72114;SHT31;59989;46.220;19.888;2023-11-21T01:19:51;5.18;97.68
72114;SHT31;59989;46.220;19.888;2023-11-21T01:22:53;5.20;97.54
72114;SHT31;59989;46.220;19.888;2023-11-21T01:25:57;5.15;97.31
72114;SHT31;59989;46.220;19.888;2023-11-21T01:28:59;5.05;97.10
72114;SHT31;59989;46.220;19.888;2023-11-21T01:32:02;5.07;97.18
72114;SHT31;59989;46.220;19.888;2023-11-21T01:35:06;4.98;97.30
72114;SHT31;59989;46.220;19.888;2023-11-21T01:38:08;4.91;97.41
72114;SHT31;59989;46.220;19.888;2023-11-21T01:41:11;4.90;97.50
72114;SHT31;59989;46.220;19.888;2023-11-21T01:44:15;4.88;97.62
72114;SHT31;59989;46.220;19.888;2023-11-21T01:47:19;4.87;97.50
72114;SHT31;59989;46.220;19.888;2023-11-21T01:50:21;4.87;97.42
72114;SHT31;59989;46.220;19.888;2023-11-21T01:53:25;4.77;97.46
72114;SHT31;59989;46.220;19.888;2023-11-21T01:56:28;4.77;97.53
72114;SHT31;59989;46.220;19.888;2023-11-21T01:59:40;4.77;97.63
72114;SHT31;59989;46.220;19.888;2023-11-21T02:02:45;4.70;97.44
72114;SHT31;59989;46.220;19.888;2023-11-21T02:05:48;4.74;97.47
72114;SHT31;59989;46.220;19.888;2023-11-21T02:08:50;4.70;97.35
72114;SHT31;59989;46.220;19.888;2023-11-21T02:11:53;4.74;97.55
72114;SHT31;59989;46.220;19.888;2023-11-21T02:15:00;4.80;97.54
72114;SHT31;59989;46.220;19.888;2023-11-21T02:18:03;4.86;97.45
72114;SHT31;59989;46.220;19.888;2023-11-21T02:21:06;4.83;97.41
72114;SHT31;59989;46.220;19.888;2023-11-21T02:24:08;4.91;97.27
72114;SHT31;59989;46.220;19.888;2023-11-21T02:27:13;4.93;97.27
72114;SHT31;59989;46.220;19.888;2023-11-21T02:30:16;4.91;97.30
72114;SHT31;59989;46.220;19.888;2023-11-21T02:33:18;4.91;97.37
72114;SHT31;59989;46.220;19.888;2023-11-21T02:36:22;4.88;97.34
72114;SHT31;59989;46.220;19.888;2023-11-21T02:39:25;4.93;97.43
72114;SHT31;59989;46.220;19.888;2023-11-21T02:42:28;4.95;97.38
72114;SHT31;59989;46.220;19.888;2023-11-21T02:45:30;4.91;97.28
72114;SHT31;59989;46.220;19.888;2023-11-21T02:48:33;4.91;97.44
72114;SHT31;59989;46.220;19.888;2023-11-21T02:51:36;4.91;97.58
72114;SHT31;59989;46.220;19.888;2023-11-21T02:54:38;4.97;97.47
72114;SHT31;59989;46.220;19.888;2023-11-21T02:57:41;4.98;97.54
72114;SHT31;59989;46.220;19.888;2023-11-21T03:00:43;5.01;97.57
72114;SHT31;59989;46.220;19.888;2023-11-21T03:03:46;5.10;97.60
72114;SHT31;59989;46.220;19.888;2023-11-21T03:06:50;5.13;97.49
72114;SHT31;59989;46.220;19.888;2023-11-21T03:09:52;5.20;97.51
72114;SHT31;59989;46.220;19.888;2023-11-21T03:12:54;5.25;97.45
72114;SHT31;59989;46.220;19.888;2023-11-21T03:15:57;5.34;97.19
72114;SHT31;59989;46.220;19.888;2023-11-21T03:18:59;5.34;97.19
72114;SHT31;59989;46.220;19.888;2023-11-21T03:22:02;5.38;97.02
72114;SHT31;59989;46.220;19.888;2023-11-21T03:25:07;5.46;97.03
72114;SHT31;59989;46.220;19.888;2023-11-21T03:28:13;5.49;97.00
72114;SHT31;59989;46.220;19.888;2023-11-21T03:31:16;5.53;96.92
72114;SHT31;59989;46.220;19.888;2023-11-21T03:34:27;5.55;96.85
72114;SHT31;59989;46.220;19.888;2023-11-21T03:37:30;5.62;96.81
72114;SHT31;59989;46.220;19.888;2023-11-21T03:40:32;5.60;96.65
72114;SHT31;59989;46.220;19.888;2023-11-21T03:43:36;5.66;96.69
72114;SHT31;59989;46.220;19.888;2023-11-21T03:46:40;5.70;96.70
72114;SHT31;59989;46.220;19.888;2023-11-21T03:49:43;5.73;96.57
72114;SHT31;59989;46.220;19.888;2023-11-21T03:52:49;5.77;96.74
72114;SHT31;59989;46.220;19.888;2023-11-21T03:55:51;5.77;96.67
72114;SHT31;59989;46.220;19.888;2023-11-21T03:58:54;5.82;96.71
72114;SHT31;59989;46.220;19.888;2023-11-21T04:01:56;5.85;96.75
72114;SHT31;59989;46.220;19.888;2023-11-21T04:04:59;5.89;97.02
72114;SHT31;59989;46.220;19.888;2023-11-21T04:08:01;5.96;96.78
72114;SHT31;59989;46.220;19.888;2023-11-21T04:11:04;6.00;96.71
72114;SHT31;59989;46.220;19.888;2023-11-21T04:14:06;5.97;96.38
72114;SHT31;59989;46.220;19.888;2023-11-21T04:17:09;6.07;96.35
72114;SHT31;59989;46.220;19.888;2023-11-21T04:20:11;6.04;96.52
72114;SHT31;59989;46.220;19.888;2023-11-21T04:23:14;6.14;96.51
72114;SHT31;59989;46.220;19.888;2023-11-21T04:26:17;6.14;96.25
72114;SHT31;59989;46.220;19.888;2023-11-21T04:29:19;6.16;96.25
72114;SHT31;59989;46.220;19.888;2023-11-21T04:32:22;6.14;96.32
72114;SHT31;59989;46.220;19.888;2023-11-21T04:35:24;6.14;96.20
72114;SHT31;59989;46.220;19.888;2023-11-21T04:38:27;6.09;96.17
72114;SHT31;59989;46.220;19.888;2023-11-21T04:41:29;6.09;96.23
72114;SHT31;59989;46.220;19.888;2023-11-21T04:44:34;6.10;96.18
72114;SHT31;59989;46.220;19.888;2023-11-21T04:47:36;6.14;96.25
72114;SHT31;59989;46.220;19.888;2023-11-21T04:50:39;6.16;96.32
72114;SHT31;59989;46.220;19.888;2023-11-21T04:53:41;6.07;96.12
72114;SHT31;59989;46.220;19.888;2023-11-21T04:56:43;6.09;96.29
72114;SHT31;59989;46.220;19.888;2023-11-21T04:59:46;6.06;96.33
72114;SHT31;59989;46.220;19.888;2023-11-21T05:02:49;6.01;96.15
72114;SHT31;59989;46.220;19.888;2023-11-21T05:05:52;6.00;96.27
72114;SHT31;59989;46.220;19.888;2023-11-21T05:08:54;5.94;96.45
72114;SHT31;59989;46.220;19.888;2023-11-21T05:11:57;5.92;96.39
72114;SHT31;59989;46.220;19.888;2023-11-21T05:14:59;5.86;96.44
72114;SHT31;59989;46.220;19.888;2023-11-21T05:18:02;5.83;96.62
72114;SHT31;59989;46.220;19.888;2023-11-21T05:21:04;5.77;96.71
72114;SHT31;59989;46.220;19.888;2023-11-21T05:24:07;5.80;96.77
72114;SHT31;59989;46.220;19.888;2023-11-21T05:27:10;5.87;96.83
72114;SHT31;59989;46.220;19.888;2023-11-21T05:30:13;5.87;96.72
72114;SHT31;59989;46.220;19.888;2023-11-21T05:33:16;5.89;96.67
72114;SHT31;59989;46.220;19.888;2023-11-21T05:36:19;6.00;96.56
72114;SHT31;59989;46.220;19.888;2023-11-21T05:39:21;5.94;96.47
72114;SHT31;59989;46.220;19.888;2023-11-21T05:42:24;6.00;96.44
72114;SHT31;59989;46.220;19.888;2023-11-21T05:45:26;6.06;96.89
72114;SHT31;59989;46.220;19.888;2023-11-21T05:48:29;6.14;96.80
72114;SHT31;59989;46.220;19.888;2023-11-21T05:51:32;6.22;96.98
72114;SHT31;59989;46.220;19.888;2023-11-21T05:54:34;6.27;96.88
72114;SHT31;59989;46.220;19.888;2023-11-21T05:57:38;6.32;96.71
72114;SHT31;59989;46.220;19.888;2023-11-21T06:00:41;6.31;96.73
72114;SHT31;59989;46.220;19.888;2023-11-21T06:03:43;6.37;96.68
72114;SHT31;59989;46.220;19.888;2023-11-21T06:06:46;6.44;96.63
72114;SHT31;59989;46.220;19.888;2023-11-21T06:09:48;6.40;96.11
72114;SHT31;59989;46.220;19.888;2023-11-21T06:12:53;6.41;96.23
72114;SHT31;59989;46.220;19.888;2023-11-21T06:15:55;6.49;96.18
72114;SHT31;59989;46.220;19.888;2023-11-21T06:18:58;6.52;96.10
72114;SHT31;59989;46.220;19.888;2023-11-21T06:22:00;6.58;96.00
72114;SHT31;59989;46.220;19.888;2023-11-21T06:25:05;6.56;95.93
72114;SHT31;59989;46.220;19.888;2023-11-21T06:28:08;6.62;95.83
72114;SHT31;59989;46.220;19.888;2023-11-21T06:31:10;6.69;95.68
72114;SHT31;59989;46.220;19.888;2023-11-21T06:34:14;6.69;95.45
72114;SHT31;59989;46.220;19.888;2023-11-21T06:37:16;6.65;95.74
72114;SHT31;59989;46.220;19.888;2023-11-21T06:40:19;6.65;95.89
72114;SHT31;59989;46.220;19.888;2023-11-21T06:43:22;6.67;96.01
72114;SHT31;59989;46.220;19.888;2023-11-21T06:46:25;6.69;96.02
72114;SHT31;59989;46.220;19.888;2023-11-21T06:49:28;6.71;95.99
72114;SHT31;59989;46.220;19.888;2023-11-21T06:52:30;6.75;96.02
72114;SHT31;59989;46.220;19.888;2023-11-21T06:55:33;6.76;96.08
72114;SHT31;59989;46.220;19.888;2023-11-21T06:58:36;6.71;96.28
72114;SHT31;59989;46.220;19.888;2023-11-21T07:01:38;6.78;96.47
72114;SHT31;59989;46.220;19.888;2023-11-21T07:04:45;6.89;96.56
72114;SHT31;59989;46.220;19.888;2023-11-21T07:07:49;6.96;96.73
72114;SHT31;59989;46.220;19.888;2023-11-21T07:10:52;7.07;96.74
72114;SHT31;59989;46.220;19.888;2023-11-21T07:13:55;7.14;96.75
72114;SHT31;59989;46.220;19.888;2023-11-21T07:16:57;7.24;96.76
72114;SHT31;59989;46.220;19.888;2023-11-21T07:20:00;7.31;96.43
72114;SHT31;59989;46.220;19.888;2023-11-21T07:23:03;7.41;96.37
72114;SHT31;59989;46.220;19.888;2023-11-21T07:26:06;7.48;96.46
72114;SHT31;59989;46.220;19.888;2023-11-21T07:29:11;7.58;96.20
72114;SHT31;59989;46.220;19.888;2023-11-21T07:32:14;7.67;96.11
72114;SHT31;59989;46.220;19.888;2023-11-21T07:35:17;7.78;95.66
72114;SHT31;59989;46.220;19.888;2023-11-21T07:38:19;7.86;95.77
72114;SHT31;59989;46.220;19.888;2023-11-21T07:41:22;7.83;96.04
72114;SHT31;59989;46.220;19.888;2023-11-21T07:44:32;7.85;96.29
72114;SHT31;59989;46.220;19.888;2023-11-21T07:47:35;7.83;96.08
72114;SHT31;59989;46.220;19.888;2023-11-21T07:50:37;7.79;96.08
72114;SHT31;59989;46.220;19.888;2023-11-21T07:53:40;7.81;96.24
72114;SHT31;59989;46.220;19.888;2023-11-21T07:56:42;7.85;96.30
72114;SHT31;59989;46.220;19.888;2023-11-21T07:59:45;7.88;96.37
72114;SHT31;59989;46.220;19.888;2023-11-21T08:02:47;7.89;96.57
72114;SHT31;59989;46.220;19.888;2023-11-21T08:05:50;7.92;96.45
72114;SHT31;59989;46.220;19.888;2023-11-21T08:08:52;7.95;96.09
72114;SHT31;59989;46.220;19.888;2023-11-21T08:11:55;8.02;95.78
72114;SHT31;59989;46.220;19.888;2023-11-21T08:14:59;8.12;94.45
72114;SHT31;59989;46.220;19.888;2023-11-21T08:18:02;8.32;93.67
72114;SHT31;59989;46.220;19.888;2023-11-21T08:21:06;8.41;92.81
72114;SHT31;59989;46.220;19.888;2023-11-21T08:24:09;8.37;94.11
72114;SHT31;59989;46.220;19.888;2023-11-21T08:27:13;8.38;93.83
72114;SHT31;59989;46.220;19.888;2023-11-21T08:30:18;8.44;93.01
72114;SHT31;59989;46.220;19.888;2023-11-21T08:33:22;8.44;93.82
72114;SHT31;59989;46.220;19.888;2023-11-21T08:36:25;8.47;93.40
72114;SHT31;59989;46.220;19.888;2023-11-21T08:39:27;8.63;92.18
72114;SHT31;59989;46.220;19.888;2023-11-21T08:42:30;8.71;91.83
72114;SHT31;59989;46.220;19.888;2023-11-21T08:45:33;8.74;92.13
72114;SHT31;59989;46.220;19.888;2023-11-21T08:48:37;8.82;92.05
72114;SHT31;59989;46.220;19.888;2023-11-21T08:51:39;8.81;92.75
72114;SHT31;59989;46.220;19.888;2023-11-21T08:54:41;8.82;93.15
72114;SHT31;59989;46.220;19.888;2023-11-21T08:57:46;8.76;93.40
72114;SHT31;59989;46.220;19.888;2023-11-21T09:00:51;8.72;93.20
72114;SHT31;59989;46.220;19.888;2023-11-21T09:03:54;8.74;93.35
72114;SHT31;59989;46.220;19.888;2023-11-21T09:06:56;8.71;92.95
72114;SHT31;59989;46.220;19.888;2023-11-21T09:09:59;8.76;91.86
72114;SHT31;59989;46.220;19.888;2023-11-21T09:13:01;8.76;92.47
72114;SHT31;59989;46.220;19.888;2023-11-21T09:16:04;8.78;92.26
72114;SHT31;59989;46.220;19.888;2023-11-21T09:19:07;8.78;92.34
72114;SHT31;59989;46.220;19.888;2023-11-21T09:22:10;8.76;92.45
72114;SHT31;59989;46.220;19.888;2023-11-21T09:25:12;8.75;92.43
72114;SHT31;59989;46.220;19.888;2023-11-21T09:28:15;8.75;92.56
72114;SHT31;59989;46.220;19.888;2023-11-21T09:31:19;8.76;92.68
72114;SHT31;59989;46.220;19.888;2023-11-21T09:34:25;8.78;92.75
72114;SHT31;59989;46.220;19.888;2023-11-21T09:37:28;8.82;92.86
72114;SHT31;59989;46.220;19.888;2023-11-21T09:40:30;8.93;92.21
72114;SHT31;59989;46.220;19.888;2023-11-21T09:43:34;8.99;91.72
72114;SHT31;59989;46.220;19.888;2023-11-21T09:46:37;8.93;92.35
72114;SHT31;59989;46.220;19.888;2023-11-21T09:49:47;8.92;91.98
72114;SHT31;59989;46.220;19.888;2023-11-21T09:52:58;8.99;91.31
72114;SHT31;59989;46.220;19.888;2023-11-21T09:56:05;9.05;90.90
72114;SHT31;59989;46.220;19.888;2023-11-21T09:59:13;9.09;90.44
72114;SHT31;59989;46.220;19.888;2023-11-21T10:02:17;9.15;89.90
72114;SHT31;59989;46.220;19.888;2023-11-21T10:05:22;9.19;89.31
72114;SHT31;59989;46.220;19.888;2023-11-21T10:08:29;9.22;89.21
72114;SHT31;59989;46.220;19.888;2023-11-21T10:11:51;9.23;89.29
72114;SHT31;59989;46.220;19.888;2023-11-21T10:14:57;9.27;88.80
72114;SHT31;59989;46.220;19.888;2023-11-21T10:18:02;9.29;88.38
72114;SHT31;59989;46.220;19.888;2023-11-21T10:21:06;9.32;88.49
72114;SHT31;59989;46.220;19.888;2023-11-21T10:24:08;9.33;88.08
72114;SHT31;59989;46.220;19.888;2023-11-21T10:27:11;9.34;88.37
72114;SHT31;59989;46.220;19.888;2023-11-21T10:30:13;9.36;88.59
72114;SHT31;59989;46.220;19.888;2023-11-21T10:33:27;9.34;89.05
72114;SHT31;59989;46.220;19.888;2023-11-21T10:36:30;9.33;89.19
72114;SHT31;59989;46.220;19.888;2023-11-21T10:39:39;9.27;89.49
72114;SHT31;59989;46.220;19.888;2023-11-21T10:42:42;9.30;89.52
72114;SHT31;59989;46.220;19.888;2023-11-21T10:45:44;9.32;89.51
72114;SHT31;59989;46.220;19.888;2023-11-21T10:48:54;9.29;89.46
72114;SHT31;59989;46.220;19.888;2023-11-21T10:51:58;9.34;89.64
72114;SHT31;59989;46.220;19.888;2023-11-21T10:55:00;9.37;89.24
72114;SHT31;59989;46.220;19.888;2023-11-21T10:58:06;9.37;89.07
72114;SHT31;59989;46.220;19.888;2023-11-21T11:01:09;9.44;89.34
72114;SHT31;59989;46.220;19.888;2023-11-21T11:04:14;9.44;88.96
72114;SHT31;59989;46.220;19.888;2023-11-21T11:07:21;9.51;88.88
72114;SHT31;59989;46.220;19.888;2023-11-21T11:10:25;9.53;88.35
72114;SHT31;59989;46.220;19.888;2023-11-21T11:13:30;9.55;88.54
72114;SHT31;59989;46.220;19.888;2023-11-21T11:16:33;9.63;88.31
72114;SHT31;59989;46.220;19.888;2023-11-21T11:19:37;9.61;87.50
72114;SHT31;59989;46.220;19.888;2023-11-21T11:22:50;9.64;87.61
72114;SHT31;59989;46.220;19.888;2023-11-21T11:33:02;9.58;87.36
72114;SHT31;59989;46.220;19.888;2023-11-21T11:39:36;9.58;87.66
72114;SHT31;59989;46.220;19.888;2023-11-21T11:42:38;9.58;87.49
72114;SHT31;59989;46.220;19.888;2023-11-21T11:45:41;9.54;87.69
72114;SHT31;59989;46.220;19.888;2023-11-21T11:48:44;9.54;87.53
72114;SHT31;59989;46.220;19.888;2023-11-21T11:51:47;9.57;87.50
72114;SHT31;59989;46.220;19.888;2023-11-21T11:54:50;9.61;87.65
72114;SHT31;59989;46.220;19.888;2023-11-21T11:57:54;9.58;87.73
72114;SHT31;59989;46.220;19.888;2023-11-21T12:01:06;9.58;88.07
72114;SHT31;59989;46.220;19.888;2023-11-21T12:07:19;9.54;87.74
72114;SHT31;59989;46.220;19.888;2023-11-21T12:10:25;9.50;88.07
72114;SHT31;59989;46.220;19.888;2023-11-21T12:13:28;9.51;87.99
72114;SHT31;59989;46.220;19.888;2023-11-21T12:16:32;9.55;88.03
72114;SHT31;59989;46.220;19.888;2023-11-21T12:19:35;9.48;88.23
72114;SHT31;59989;46.220;19.888;2023-11-21T12:22:37;9.47;88.45
72114;SHT31;59989;46.220;19.888;2023-11-21T12:25:41;9.48;88.53
72114;SHT31;59989;46.220;19.888;2023-11-21T12:28:52;9.46;88.50
72114;SHT31;59989;46.220;19.888;2023-11-21T12:31:58;9.48;88.70
72114;SHT31;59989;46.220;19.888;2023-11-21T12:35:00;9.44;88.73
72114;SHT31;59989;46.220;19.888;2023-11-21T12:38:05;9.40;88.88
72114;SHT31;59989;46.220;19.888;2023-11-21T12:41:09;9.43;89.22
72114;SHT31;59989;46.220;19.888;2023-11-21T12:44:16;9.39;88.91
72114;SHT31;59989;46.220;19.888;2023-11-21T12:47:19;9.36;89.19
72114;SHT31;59989;46.220;19.888;2023-11-21T12:50:24;9.34;89.13
72114;SHT31;59989;46.220;19.888;2023-11-21T12:53:31;9.34;89.13
72114;SHT31;59989;46.220;19.888;2023-11-21T12:56:39;9.34;89.35
72114;SHT31;59989;46.220;19.888;2023-11-21T12:59:41;9.33;89.35
72114;SHT31;59989;46.220;19.888;2023-11-21T13:02:46;9.32;89.76
72114;SHT31;59989;46.220;19.888;2023-11-21T13:05:51;9.29;89.45
72114;SHT31;59989;46.220;19.888;2023-11-21T13:08:56;9.27;89.79
72114;SHT31;59989;46.220;19.888;2023-11-21T13:12:01;9.26;89.90
72114;SHT31;59989;46.220;19.888;2023-11-21T13:15:07;9.20;90.16
72114;SHT31;59989;46.220;19.888;2023-11-21T13:18:10;9.20;90.32
72114;SHT31;59989;46.220;19.888;2023-11-21T13:21:13;9.16;90.38
72114;SHT31;59989;46.220;19.888;2023-11-21T13:24:16;9.16;90.63
72114;SHT31;59989;46.220;19.888;2023-11-21T13:27:20;9.15;91.14
72114;SHT31;59989;46.220;19.888;2023-11-21T13:30:24;9.20;91.61
72114;SHT31;59989;46.220;19.888;2023-11-21T13:33:36;9.15;91.52
72114;SHT31;59989;46.220;19.888;2023-11-21T13:36:40;9.20;91.49
72114;SHT31;59989;46.220;19.888;2023-11-21T13:39:44;9.20;91.78
72114;SHT31;59989;46.220;19.888;2023-11-21T13:42:54;9.12;92.15
72114;SHT31;59989;46.220;19.888;2023-11-21T13:45:56;9.04;92.35
72114;SHT31;59989;46.220;19.888;2023-11-21T13:49:05;9.01;92.64
72114;SHT31;59989;46.220;19.888;2023-11-21T13:52:12;8.89;92.91
72114;SHT31;59989;46.220;19.888;2023-11-21T13:55:19;8.89;93.52
72114;SHT31;59989;46.220;19.888;2023-11-21T13:58:21;8.86;94.02
72114;SHT31;59989;46.220;19.888;2023-11-21T14:01:41;8.81;94.33
72114;SHT31;59989;46.220;19.888;2023-11-21T14:04:58;8.76;94.59
72114;SHT31;59989;46.220;19.888;2023-11-21T14:08:03;8.79;94.74
72114;SHT31;59989;46.220;19.888;2023-11-21T14:11:07;8.86;94.63
72114;SHT31;59989;46.220;19.888;2023-11-21T14:14:10;8.92;94.61
72114;SHT31;59989;46.220;19.888;2023-11-21T14:17:13;8.88;94.77
72114;SHT31;59989;46.220;19.888;2023-11-21T14:20:15;8.95;94.55
72114;SHT31;59989;46.220;19.888;2023-11-21T14:23:19;8.91;94.76
72114;SHT31;59989;46.220;19.888;2023-11-21T14:26:23;8.86;94.92
72114;SHT31;59989;46.220;19.888;2023-11-21T14:29:27;8.84;95.22
72114;SHT31;59989;46.220;19.888;2023-11-21T14:32:31;8.82;95.02
72114;SHT31;59989;46.220;19.888;2023-11-21T14:35:34;8.74;95.19
72114;SHT31;59989;46.220;19.888;2023-11-21T14:38:37;8.67;95.54
72114;SHT31;59989;46.220;19.888;2023-11-21T14:41:42;8.63;95.58
72114;SHT31;59989;46.220;19.888;2023-11-21T14:44:46;8.67;95.47
72114;SHT31;59989;46.220;19.888;2023-11-21T14:47:49;8.63;95.50
72114;SHT31;59989;46.220;19.888;2023-11-21T14:51:05;8.57;95.88
72114;SHT31;59989;46.220;19.888;2023-11-21T14:54:08;8.54;96.02
72114;SHT31;59989;46.220;19.888;2023-11-21T14:57:13;8.51;96.10
72114;SHT31;59989;46.220;19.888;2023-11-21T15:00:21;8.53;96.02
72114;SHT31;59989;46.220;19.888;2023-11-21T15:03:36;8.64;95.80
72114;SHT31;59989;46.220;19.888;2023-11-21T15:06:52;8.47;96.64
72114;SHT31;59989;46.220;19.888;2023-11-21T15:09:55;8.44;96.78
72114;SHT31;59989;46.220;19.888;2023-11-21T15:12:58;8.34;97.45
72114;SHT31;59989;46.220;19.888;2023-11-21T15:16:01;8.26;97.60
72114;SHT31;59989;46.220;19.888;2023-11-21T15:19:10;8.22;97.40
72114;SHT31;59989;46.220;19.888;2023-11-21T15:22:14;8.22;97.62
72114;SHT31;59989;46.220;19.888;2023-11-21T15:25:18;8.17;97.48
72114;SHT31;59989;46.220;19.888;2023-11-21T15:28:20;8.19;97.40
72114;SHT31;59989;46.220;19.888;2023-11-21T15:31:23;8.14;97.48
72114;SHT31;59989;46.220;19.888;2023-11-21T15:34:27;8.13;97.62
72114;SHT31;59989;46.220;19.888;2023-11-21T15:37:32;8.10;97.66
72114;SHT31;59989;46.220;19.888;2023-11-21T15:40:34;8.09;98.01
72114;SHT31;59989;46.220;19.888;2023-11-21T15:43:37;8.03;98.25
72114;SHT31;59989;46.220;19.888;2023-11-21T15:46:40;8.02;98.26
72114;SHT31;59989;46.220;19.888;2023-11-21T15:49:44;8.05;97.77
72114;SHT31;59989;46.220;19.888;2023-11-21T15:52:51;8.03;97.76
72114;SHT31;59989;46.220;19.888;2023-11-21T15:55:59;8.05;97.81
72114;SHT31;59989;46.220;19.888;2023-11-21T15:59:02;8.00;98.02
72114;SHT31;59989;46.220;19.888;2023-11-21T16:02:05;7.98;98.13
72114;SHT31;59989;46.220;19.888;2023-11-21T16:05:09;7.95;98.25
72114;SHT31;59989;46.220;19.888;2023-11-21T16:08:15;7.98;98.20
72114;SHT31;59989;46.220;19.888;2023-11-21T16:11:20;7.95;98.15
72114;SHT31;59989;46.220;19.888;2023-11-21T16:14:22;7.98;98.13
72114;SHT31;59989;46.220;19.888;2023-11-21T16:17:28;8.02;98.04
72114;SHT31;59989;46.220;19.888;2023-11-21T16:20:31;8.06;97.92
72114;SHT31;59989;46.220;19.888;2023-11-21T16:23:34;8.02;98.08
72114;SHT31;59989;46.220;19.888;2023-11-21T16:26:36;7.98;98.14
72114;SHT31;59989;46.220;19.888;2023-11-21T16:29:41;7.98;98.26
72114;SHT31;59989;46.220;19.888;2023-11-21T16:32:44;7.96;98.52
72114;SHT31;59989;46.220;19.888;2023-11-21T16:35:46;7.96;98.44
72114;SHT31;59989;46.220;19.888;2023-11-21T16:38:49;7.92;98.54
72114;SHT31;59989;46.220;19.888;2023-11-21T16:41:52;7.89;98.64
72114;SHT31;59989;46.220;19.888;2023-11-21T16:44:55;7.89;98.66
72114;SHT31;59989;46.220;19.888;2023-11-21T16:47:57;7.89;98.62
72114;SHT31;59989;46.220;19.888;2023-11-21T16:51:00;7.86;98.68
72114;SHT31;59989;46.220;19.888;2023-11-21T16:54:02;7.88;98.73
72114;SHT31;59989;46.220;19.888;2023-11-21T16:57:05;7.85;98.79
72114;SHT31;59989;46.220;19.888;2023-11-21T17:00:08;7.86;98.71
72114;SHT31;59989;46.220;19.888;2023-11-21T17:03:14;7.88;98.72
72114;SHT31;59989;46.220;19.888;2023-11-21T17:06:17;7.86;98.71
72114;SHT31;59989;46.220;19.888;2023-11-21T17:09:19;7.88;98.62
72114;SHT31;59989;46.220;19.888;2023-11-21T17:12:22;7.86;98.58
72114;SHT31;59989;46.220;19.888;2023-11-21T17:15:24;7.86;98.49
72114;SHT31;59989;46.220;19.888;2023-11-21T17:18:27;7.86;98.52
72114;SHT31;59989;46.220;19.888;2023-11-21T17:21:30;7.86;98.61
72114;SHT31;59989;46.220;19.888;2023-11-21T17:24:36;7.83;98.53
72114;SHT31;59989;46.220;19.888;2023-11-21T17:27:39;7.85;98.42
72114;SHT31;59989;46.220;19.888;2023-11-21T17:30:41;7.83;98.33
72114;SHT31;59989;46.220;19.888;2023-11-21T17:33:44;7.83;98.46
72114;SHT31;59989;46.220;19.888;2023-11-21T17:36:47;7.81;98.46
72114;SHT31;59989;46.220;19.888;2023-11-21T17:39:50;7.78;98.62
72114;SHT31;59989;46.220;19.888;2023-11-21T17:42:52;7.79;98.52
72114;SHT31;59989;46.220;19.888;2023-11-21T17:45:55;7.77;98.59
72114;SHT31;59989;46.220;19.888;2023-11-21T17:48:58;7.79;98.40
72114;SHT31;59989;46.220;19.888;2023-11-21T17:52:01;7.78;98.45
72114;SHT31;59989;46.220;19.888;2023-11-21T17:55:04;7.79;98.46
72114;SHT31;59989;46.220;19.888;2023-11-21T17:58:07;7.78;98.59
72114;SHT31;59989;46.220;19.888;2023-11-21T18:01:11;7.75;98.52
72114;SHT31;59989;46.220;19.888;2023-11-21T18:04:15;7.77;98.54
72114;SHT31;59989;46.220;19.888;2023-11-21T18:07:18;7.78;98.53
72114;SHT31;59989;46.220;19.888;2023-11-21T18:10:20;7.74;98.54
72114;SHT31;59989;46.220;19.888;2023-11-21T18:13:23;7.77;98.55
72114;SHT31;59989;46.220;19.888;2023-11-21T18:16:25;7.75;98.54
72114;SHT31;59989;46.220;19.888;2023-11-21T18:19:28;7.74;98.55
72114;SHT31;59989;46.220;19.888;2023-11-21T18:22:31;7.75;98.60
72114;SHT31;59989;46.220;19.888;2023-11-21T18:25:34;7.78;98.47
72114;SHT31;59989;46.220;19.888;2023-11-21T18:28:36;7.75;98.41
72114;SHT31;59989;46.220;19.888;2023-11-21T18:31:41;7.75;98.37
72114;SHT31;59989;46.220;19.888;2023-11-21T18:34:44;7.75;98.42
72114;SHT31;59989;46.220;19.888;2023-11-21T18:37:48;7.77;98.41
72114;SHT31;59989;46.220;19.888;2023-11-21T18:40:51;7.77;98.37
72114;SHT31;59989;46.220;19.888;2023-11-21T18:43:54;7.74;98.41
72114;SHT31;59989;46.220;19.888;2023-11-21T18:46:56;7.75;98.34
72114;SHT31;59989;46.220;19.888;2023-11-21T18:49:59;7.72;98.43
72114;SHT31;59989;46.220;19.888;2023-11-21T18:53:02;7.75;98.43
72114;SHT31;59989;46.220;19.888;2023-11-21T18:56:06;7.77;98.48
72114;SHT31;59989;46.220;19.888;2023-11-21T18:59:09;7.77;98.46
72114;SHT31;59989;46.220;19.888;2023-11-21T19:02:12;7.75;98.45
72114;SHT31;59989;46.220;19.888;2023-11-21T19:05:17;7.78;98.49
72114;SHT31;59989;46.220;19.888;2023-11-21T19:08:20;7.77;98.49
72114;SHT31;59989;46.220;19.888;2023-11-21T19:11:24;7.78;98.45
72114;SHT31;59989;46.220;19.888;2023-11-21T19:14:26;7.81;98.50
72114;SHT31;59989;46.220;19.888;2023-11-21T19:17:29;7.77;98.52
72114;SHT31;59989;46.220;19.888;2023-11-21T19:20:35;7.79;98.43
72114;SHT31;59989;46.220;19.888;2023-11-21T19:23:37;7.79;98.37
72114;SHT31;59989;46.220;19.888;2023-11-21T19:26:41;7.79;98.35
72114;SHT31;59989;46.220;19.888;2023-11-21T19:29:43;7.81;98.35
72114;SHT31;59989;46.220;19.888;2023-11-21T19:32:46;7.82;98.25